^^
Saratoga-Weather Station Historical Data
Daily Summary for September 2, 2021 Units:  Metric    English   Both
Daily Weekly Monthly Yearly Custom
  High: Low: Average:
Temperature: 19.4 °C 11.8 °C 15.1 °C
Dew Point: 14.6 °C 10.6 °C 12.5 °C
Humidity: 94% 68% 85%
Wind Speed: 13km/h 0km/h 2.2km/h
Wind Gust: 17.7km/h - -
Wind- - ESE
Pressure: 1015.6 hPa 1002.0 hPa -
Precipitation: 2.8 mm    
Historical Graphs
 
 
Tabular Data for September 2, 2021
Time Temperature Dew Point Pressure Wind Wind Speed Wind Gust Humidity Rainfall Rate (Hourly) solar
00:03 12.8 °C 10.7 °C 1015.6 hPa WNW 4.7 km/h 8 km/h 87% 0.0 mm 0 W/m2
00:08 12.7 °C 10.6 °C 1015.6 hPa NNW 3.2 km/h 3.2 km/h 87% 0.0 mm 0 W/m2
00:13 12.7 °C 10.6 °C 1015.6 hPa NW 1.4 km/h 8 km/h 87% 0.0 mm 0 W/m2
00:18 12.8 °C 10.7 °C 1015.6 hPa WNW 1.4 km/h 3.2 km/h 87% 0.0 mm 0 W/m2
00:23 12.8 °C 10.7 °C 1015.6 hPa WNW 1.4 km/h 9.7 km/h 87% 0.0 mm 0 W/m2
00:28 12.7 °C 10.8 °C 1015.6 hPa NW 3.2 km/h 6.4 km/h 88% 0.0 mm 0 W/m2
00:33 12.7 °C 10.8 °C 1015.6 hPa WNW 3.2 km/h 9.7 km/h 88% 0.0 mm 0 W/m2
00:38 12.8 °C 10.9 °C 1015.6 hPa West 6.4 km/h 6.4 km/h 88% 0.0 mm 0 W/m2
00:43 12.8 °C 10.7 °C 1015.6 hPa NW 4.7 km/h 9.7 km/h 87% 0.0 mm 0 W/m2
00:48 12.8 °C 10.9 °C 1015.6 hPa NNW 1.4 km/h 4.8 km/h 88% 0.0 mm 0 W/m2
00:53 12.7 °C 10.8 °C 1015.6 hPa WNW 6.4 km/h 11.3 km/h 88% 0.0 mm 0 W/m2
00:58 12.6 °C 10.8 °C 1015.6 hPa NW 7.9 km/h 14.5 km/h 89% 0.2 mm 0 W/m2
01:03 12.6 °C 11 °C 1015.6 hPa WNW 4.7 km/h 8 km/h 90% 0.5 mm 0 W/m2
01:08 12.5 °C 10.9 °C 1015.2 hPa NNW 1.4 km/h 14.5 km/h 90% 0.8 mm 0 W/m2
01:13 12.4 °C 10.8 °C 1015.2 hPa NW 3.2 km/h 6.4 km/h 90% 1.0 mm 0 W/m2
01:18 12.4 °C 11 °C 1015.2 hPa Calm   4.8 km/h 91% 1.0 mm 0 W/m2
01:23 12.4 °C 11 °C 1015.2 hPa Calm   6.4 km/h 91% 1.0 mm 0 W/m2
01:28 12.4 °C 11 °C 1015.2 hPa NNW 1.4 km/h 1.6 km/h 91% 1.0 mm 0 W/m2
01:33 12.3 °C 10.9 °C 1015.2 hPa Calm   1.6 km/h 91% 1.0 mm 0 W/m2
01:38 12.3 °C 10.9 °C 1015.2 hPa Calm   3.2 km/h 91% 1.0 mm 0 W/m2
01:43 12.3 °C 10.9 °C 1015.2 hPa Calm   1.6 km/h 91% 1.0 mm 0 W/m2
01:48 12.3 °C 11 °C 1015.2 hPa Calm     92% 1.0 mm 0 W/m2
01:53 12.2 °C 10.9 °C 1015.2 hPa North 1.4 km/h 1.6 km/h 92% 1.0 mm 0 W/m2
01:58 12.2 °C 10.9 °C 1014.9 hPa Calm   1.6 km/h 92% 0.8 mm 0 W/m2
02:03 12.2 °C 10.9 °C 1014.9 hPa Calm     92% 0.5 mm 0 W/m2
02:08 12.1 °C 10.8 °C 1014.9 hPa Calm     92% 0.2 mm 0 W/m2
02:13 12.1 °C 11 °C 1014.9 hPa Calm   1.6 km/h 93% 0.0 mm 0 W/m2
02:18 12.1 °C 11 °C 1014.9 hPa Calm   1.6 km/h 93% 0.0 mm 0 W/m2
02:23 12.1 °C 11 °C 1014.9 hPa East 3.2 km/h 3.2 km/h 93% 0.0 mm 0 W/m2
02:28 12.1 °C 11 °C 1014.9 hPa East 1.4 km/h 3.2 km/h 93% 0.0 mm 0 W/m2
02:33 12 °C 10.9 °C 1014.9 hPa Calm   1.6 km/h 93% 0.0 mm 0 W/m2
02:38 12 °C 10.9 °C 1014.9 hPa East 1.4 km/h 3.2 km/h 93% 0.0 mm 0 W/m2
02:43 12.1 °C 11 °C 1014.9 hPa East 1.4 km/h 4.8 km/h 93% 0.0 mm 0 W/m2
02:48 12.1 °C 11 °C 1014.9 hPa Calm   3.2 km/h 93% 0.0 mm 0 W/m2
02:53 12.1 °C 11 °C 1014.9 hPa Calm   4.8 km/h 93% 0.0 mm 0 W/m2
02:58 12.1 °C 11 °C 1014.9 hPa Calm   1.6 km/h 93% 0.0 mm 0 W/m2
03:03 12.1 °C 11 °C 1014.9 hPa Calm   1.6 km/h 93% 0.0 mm 0 W/m2
03:08 12 °C 11.1 °C 1014.6 hPa Calm   1.6 km/h 94% 0.0 mm 0 W/m2
03:13 12 °C 11.1 °C 1014.6 hPa Calm     94% 0.0 mm 0 W/m2
03:19 11.9 °C 11 °C 1014.6 hPa Calm     94% 0.0 mm 0 W/m2
03:24 11.9 °C 11 °C 1014.6 hPa Calm     94% 0.0 mm 0 W/m2
03:29 11.9 °C 11 °C 1014.6 hPa Calm     94% 0.0 mm 0 W/m2
03:34 11.8 °C 10.9 °C 1014.6 hPa Calm     94% 0.0 mm 0 W/m2
03:39 11.8 °C 10.9 °C 1014.6 hPa Calm   1.6 km/h 94% 0.0 mm 0 W/m2
03:44 11.8 °C 10.9 °C 1014.6 hPa Calm   4.8 km/h 94% 0.0 mm 0 W/m2
03:49 11.8 °C 10.9 °C 1014.6 hPa East 1.4 km/h 1.6 km/h 94% 0.0 mm 0 W/m2
03:54 11.8 °C 10.9 °C 1014.6 hPa Calm   4.8 km/h 94% 0.0 mm 0 W/m2
03:59 11.9 °C 11 °C 1014.6 hPa ENE 1.4 km/h 3.2 km/h 94% 0.0 mm 0 W/m2
04:04 11.9 °C 11 °C 1014.6 hPa ENE 4.7 km/h 4.8 km/h 94% 0.0 mm 0 W/m2
04:09 12 °C 11.1 °C 1014.6 hPa NE 3.2 km/h 4.8 km/h 94% 0.0 mm 0 W/m2
04:14 12.1 °C 11.2 °C 1014.2 hPa Calm   1.6 km/h 94% 0.0 mm 0 W/m2
04:19 12.2 °C 11.1 °C 1014.2 hPa East 1.4 km/h 3.2 km/h 93% 0.0 mm 0 W/m2
04:24 12.3 °C 11.2 °C 1014.2 hPa NE 3.2 km/h 3.2 km/h 93% 0.0 mm 0 W/m2
04:29 12.5 °C 11.4 °C 1014.2 hPa North 3.2 km/h 8 km/h 93% 0.0 mm 0 W/m2
04:34 12.6 °C 11.3 °C 1014.2 hPa NE 3.2 km/h 4.8 km/h 92% 0.0 mm 0 W/m2
04:39 12.7 °C 11.4 °C 1014.2 hPa WNW 1.4 km/h 8 km/h 92% 0.0 mm 0 W/m2
04:44 12.7 °C 11.3 °C 1014.2 hPa NNW 3.2 km/h 6.4 km/h 91% 0.0 mm 0 W/m2
04:49 12.8 °C 11.4 °C 1013.9 hPa East 3.2 km/h 3.2 km/h 91% 0.0 mm 0 W/m2
04:54 12.8 °C 11.4 °C 1013.9 hPa North 3.2 km/h 3.2 km/h 91% 0.0 mm 0 W/m2
04:59 12.8 °C 11.4 °C 1013.9 hPa North 1.4 km/h 4.8 km/h 91% 0.0 mm 0 W/m2
05:04 12.8 °C 11.4 °C 1013.9 hPa Calm   3.2 km/h 91% 0.0 mm 0 W/m2
05:09 12.8 °C 11.4 °C 1013.9 hPa NW 1.4 km/h 4.8 km/h 91% 0.0 mm 0 W/m2
05:14 12.8 °C 11.4 °C 1014.2 hPa North 1.4 km/h 4.8 km/h 91% 0.0 mm 0 W/m2
05:19 12.8 °C 11.4 °C 1013.9 hPa ENE 1.4 km/h 4.8 km/h 91% 0.0 mm 0 W/m2
05:24 12.7 °C 11.3 °C 1013.9 hPa Calm   1.6 km/h 91% 0.0 mm 0 W/m2
05:29 12.7 °C 11.3 °C 1013.5 hPa Calm   6.4 km/h 91% 0.0 mm 0 W/m2
05:34 12.7 °C 11.3 °C 1013.5 hPa Calm   1.6 km/h 91% 0.0 mm 0 W/m2
05:39 12.7 °C 11.3 °C 1013.5 hPa West 3.2 km/h 3.2 km/h 91% 0.2 mm 0 W/m2
05:44 12.7 °C 11.3 °C 1013.5 hPa Calm   3.2 km/h 91% 0.2 mm 0 W/m2
05:49 12.7 °C 11.3 °C 1013.5 hPa Calm   3.2 km/h 91% 0.2 mm 0 W/m2
05:54 12.6 °C 11.2 °C 1013.5 hPa NNW 1.4 km/h 3.2 km/h 91% 0.5 mm 0 W/m2
05:59 12.6 °C 11.3 °C 1013.5 hPa Calm   4.8 km/h 92% 0.5 mm 0 W/m2
06:04 12.6 °C 11.3 °C 1013.5 hPa NE 1.4 km/h 3.2 km/h 92% 0.5 mm 0 W/m2
06:09 12.6 °C 11.3 °C 1013.5 hPa Calm   6.4 km/h 92% 0.5 mm 0 W/m2
06:14 12.6 °C 11.3 °C 1013.5 hPa ENE 1.4 km/h 1.6 km/h 92% 0.5 mm 0 W/m2
06:19 12.5 °C 11.4 °C 1013.5 hPa ENE 1.4 km/h 4.8 km/h 93% 0.5 mm 0 W/m2
06:24 12.5 °C 11.4 °C 1013.5 hPa NE 1.4 km/h 3.2 km/h 93% 0.8 mm 0 W/m2
06:29 12.5 °C 11.4 °C 1013.5 hPa Calm   3.2 km/h 93% 0.8 mm 0 W/m2
06:34 12.5 °C 11.4 °C 1013.5 hPa NE 1.4 km/h 4.8 km/h 93% 1.0 mm 0 W/m2
06:39 12.4 °C 11.3 °C 1013.2 hPa NE 3.2 km/h 4.8 km/h 93% 0.8 mm 0 W/m2
06:44 12.4 °C 11.3 °C 1013.2 hPa Calm   4.8 km/h 93% 0.8 mm 0 W/m2
06:49 12.4 °C 11.5 °C 1013.2 hPa NE 3.2 km/h 4.8 km/h 94% 0.8 mm 0 W/m2
06:54 12.4 °C 11.5 °C 1013.2 hPa NE 1.4 km/h 1.6 km/h 94% 0.5 mm 0 W/m2
06:59 12.3 °C 11.4 °C 1013.2 hPa NE 3.2 km/h 3.2 km/h 94% 0.5 mm 0 W/m2
07:04 12.3 °C 11.4 °C 1013.2 hPa Calm   1.6 km/h 94% 0.5 mm 0 W/m2
07:09 12.3 °C 11.4 °C 1013.2 hPa Calm     94% 0.5 mm 0 W/m2
07:14 12.3 °C 11.4 °C 1013.2 hPa Calm   1.6 km/h 94% 0.5 mm 0 W/m2
07:19 12.3 °C 11.4 °C 1013.2 hPa NE 1.4 km/h 4.8 km/h 94% 0.5 mm 0 W/m2
07:24 12.3 °C 11.4 °C 1013.2 hPa NNE 3.2 km/h 3.2 km/h 94% 0.2 mm 0 W/m2
07:29 12.3 °C 11.4 °C 1013.2 hPa NE 1.4 km/h 4.8 km/h 94% 0.2 mm 0 W/m2
07:34 12.3 °C 11.4 °C 1013.2 hPa Calm   3.2 km/h 94% 0.0 mm 0 W/m2
07:39 12.3 °C 11.4 °C 1013.2 hPa NE 1.4 km/h 6.4 km/h 94% 0.0 mm 0 W/m2
07:44 12.3 °C 11.4 °C 1012.9 hPa NE 4.7 km/h 6.4 km/h 94% 0.0 mm 0 W/m2
07:49 12.3 °C 11.4 °C 1013.2 hPa NE 3.2 km/h 8 km/h 94% 0.0 mm 0 W/m2
07:54 12.3 °C 11.4 °C 1013.2 hPa Calm   3.2 km/h 94% 0.0 mm 7 W/m2
07:59 12.3 °C 11.4 °C 1013.2 hPa NE 1.4 km/h 8 km/h 94% 0.0 mm 7 W/m2
08:04 12.3 °C 11.4 °C 1013.2 hPa NNE 3.2 km/h 4.8 km/h 94% 0.0 mm 12 W/m2
08:09 12.3 °C 11.4 °C 1013.2 hPa NNE 1.4 km/h 3.2 km/h 94% 0.0 mm 14 W/m2
08:14 12.3 °C 11.4 °C 1013.2 hPa Calm   1.6 km/h 94% 0.0 mm 14 W/m2
08:19 12.4 °C 11.5 °C 1013.2 hPa North 1.4 km/h 3.2 km/h 94% 0.0 mm 14 W/m2
08:24 12.4 °C 11.5 °C 1013.2 hPa North 1.4 km/h 1.6 km/h 94% 0.0 mm 19 W/m2
08:29 12.4 °C 11.5 °C 1013.2 hPa Calm     94% 0.0 mm 21 W/m2
08:34 12.4 °C 11.5 °C 1013.2 hPa NE 1.4 km/h 1.6 km/h 94% 0.0 mm 26 W/m2
08:39 12.5 °C 11.6 °C 1013.2 hPa NE 4.7 km/h 4.8 km/h 94% 0.0 mm 33 W/m2
08:44 12.5 °C 11.6 °C 1013.2 hPa NE 3.2 km/h 3.2 km/h 94% 0.0 mm 40 W/m2
08:49 12.6 °C 11.7 °C 1013.2 hPa Calm   3.2 km/h 94% 0.0 mm 32 W/m2
08:54 12.6 °C 11.7 °C 1013.2 hPa NE 4.7 km/h 6.4 km/h 94% 0.0 mm 49 W/m2
08:59 12.6 °C 11.7 °C 1013.2 hPa NE 1.4 km/h 4.8 km/h 94% 0.0 mm 65 W/m2
09:04 12.7 °C 11.8 °C 1013.2 hPa Calm   3.2 km/h 94% 0.2 mm 44 W/m2
09:09 12.7 °C 11.8 °C 1013.2 hPa Calm   3.2 km/h 94% 0.2 mm 53 W/m2
09:14 12.7 °C 11.8 °C 1013.2 hPa NE 3.2 km/h 3.2 km/h 94% 0.2 mm 81 W/m2
09:19 12.8 °C 11.9 °C 1013.2 hPa Calm   3.2 km/h 94% 0.2 mm 84 W/m2
09:24 12.9 °C 12 °C 1012.9 hPa Calm   4.8 km/h 94% 0.2 mm 272 W/m2
09:29 12.9 °C 12 °C 1012.9 hPa Calm   3.2 km/h 94% 0.2 mm 137 W/m2
09:34 13.1 °C 12.2 °C 1012.9 hPa Calm   3.2 km/h 94% 0.2 mm 116 W/m2
09:39 13.1 °C 12.2 °C 1013.2 hPa NE 1.4 km/h 4.8 km/h 94% 0.2 mm 56 W/m2
09:44 13.2 °C 12.1 °C 1013.2 hPa East 3.2 km/h 6.4 km/h 93% 0.2 mm 69 W/m2
09:49 13.2 °C 12.1 °C 1013.2 hPa Calm     93% 0.2 mm 46 W/m2
09:54 13.2 °C 12.1 °C 1013.2 hPa NE 1.4 km/h 3.2 km/h 93% 0.2 mm 32 W/m2
09:59 13.3 °C 12.2 °C 1012.9 hPa NE 1.4 km/h 4.8 km/h 93% 0.2 mm 49 W/m2
10:04 13.3 °C 12.2 °C 1012.9 hPa Calm   3.2 km/h 93% 0.0 mm 81 W/m2
10:09 13.3 °C 12.2 °C 1012.9 hPa Calm   3.2 km/h 93% 0.0 mm 109 W/m2
10:14 13.4 °C 12.3 °C 1012.9 hPa NNE 1.4 km/h 3.2 km/h 93% 0.0 mm 69 W/m2
10:19 13.4 °C 12.3 °C 1012.5 hPa WNW 1.4 km/h 3.2 km/h 93% 0.0 mm 132 W/m2
10:24 13.4 °C 12.3 °C 1012.5 hPa NNW 3.2 km/h 6.4 km/h 93% 0.0 mm 158 W/m2
10:29 13.6 °C 12.5 °C 1012.5 hPa Calm   3.2 km/h 93% 0.0 mm 148 W/m2
10:34 13.7 °C 12.4 °C 1012.5 hPa NNW 1.4 km/h 3.2 km/h 92% 0.0 mm 149 W/m2
10:39 13.8 °C 12.5 °C 1012.5 hPa NE 1.4 km/h 4.8 km/h 92% 0.0 mm 109 W/m2
10:44 13.9 °C 12.6 °C 1012.5 hPa NNE 3.2 km/h 3.2 km/h 92% 0.0 mm 98 W/m2
10:49 13.9 °C 12.6 °C 1012.5 hPa ENE 4.7 km/h 6.4 km/h 92% 0.0 mm 137 W/m2
10:54 14 °C 12.6 °C 1012.5 hPa Calm   6.4 km/h 91% 0.0 mm 111 W/m2
10:59 14.1 °C 12.7 °C 1012.5 hPa North 3.2 km/h 6.4 km/h 91% 0.0 mm 214 W/m2
11:04 14.2 °C 12.8 °C 1012.2 hPa North 4.7 km/h 8 km/h 91% 0.0 mm 216 W/m2
11:09 14.2 °C 12.6 °C 1012.2 hPa NNW 3.2 km/h 4.8 km/h 90% 0.0 mm 81 W/m2
11:14 14.2 °C 12.6 °C 1012.2 hPa Calm   4.8 km/h 90% 0.0 mm 60 W/m2
11:19 14.2 °C 12.6 °C 1012.2 hPa NNW 1.4 km/h 3.2 km/h 90% 0.0 mm 72 W/m2
11:24 14.2 °C 12.6 °C 1012.2 hPa NNE 3.2 km/h 3.2 km/h 90% 0.0 mm 97 W/m2
11:29 14.3 °C 12.7 °C 1012.2 hPa NNE 1.4 km/h 3.2 km/h 90% 0.0 mm 158 W/m2
11:34 14.4 °C 12.8 °C 1011.9 hPa Calm   3.2 km/h 90% 0.0 mm 172 W/m2
11:39 14.5 °C 12.7 °C 1011.9 hPa Calm   8 km/h 89% 0.0 mm 176 W/m2
11:44 14.6 °C 12.8 °C 1011.9 hPa ENE 1.4 km/h 4.8 km/h 89% 0.0 mm 190 W/m2
11:49 14.7 °C 12.9 °C 1011.9 hPa East 3.2 km/h 3.2 km/h 89% 0.0 mm 225 W/m2
11:54 14.8 °C 13 °C 1011.9 hPa ESE 1.4 km/h 3.2 km/h 89% 0.0 mm 121 W/m2
11:59 14.8 °C 12.8 °C 1011.9 hPa WNW 1.4 km/h 3.2 km/h 88% 0.0 mm 118 W/m2
12:04 14.8 °C 12.8 °C 1011.9 hPa NW 1.4 km/h 4.8 km/h 88% 0.0 mm 188 W/m2
12:09 14.9 °C 12.9 °C 1011.9 hPa NNE 3.2 km/h 6.4 km/h 88% 0.0 mm 241 W/m2
12:15 15.1 °C 13 °C 1011.5 hPa East 4.7 km/h 12.9 km/h 87% 0.0 mm 214 W/m2
12:20 15.1 °C 12.8 °C 1011.5 hPa East 3.2 km/h 6.4 km/h 86% 0.0 mm 278 W/m2
12:25 15.3 °C 13 °C 1011.2 hPa Calm   11.3 km/h 86% 0.0 mm 156 W/m2
12:30 15.4 °C 13.1 °C 1011.2 hPa NE 4.7 km/h 6.4 km/h 86% 0.0 mm 213 W/m2
12:35 15.5 °C 13 °C 1011.2 hPa Calm   14.5 km/h 85% 0.0 mm 148 W/m2
12:40 15.5 °C 13 °C 1011.2 hPa NE 1.4 km/h 4.8 km/h 85% 0.0 mm 232 W/m2
12:45 15.6 °C 13.1 °C 1010.8 hPa ENE 6.4 km/h 14.5 km/h 85% 0.0 mm 192 W/m2
12:50 15.7 °C 13 °C 1010.8 hPa WNW 1.4 km/h 4.8 km/h 84% 0.0 mm 278 W/m2
12:55 15.8 °C 13.1 °C 1010.8 hPa Calm   6.4 km/h 84% 0.0 mm 243 W/m2
13:00 15.9 °C 13 °C 1010.8 hPa ESE 1.4 km/h 12.9 km/h 83% 0.0 mm 408 W/m2
13:05 16.1 °C 13.2 °C 1010.8 hPa ESE 4.7 km/h 9.7 km/h 83% 0.0 mm 308 W/m2
13:10 16.2 °C 12.9 °C 1010.8 hPa ESE 6.4 km/h 12.9 km/h 81% 0.0 mm 281 W/m2
13:15 16.3 °C 13 °C 1010.8 hPa NNE 3.2 km/h 8 km/h 81% 0.0 mm 206 W/m2
13:20 16.3 °C 13 °C 1010.8 hPa NE 1.4 km/h 4.8 km/h 81% 0.0 mm 192 W/m2
13:25 16.4 °C 13.1 °C 1010.8 hPa North 1.4 km/h 4.8 km/h 81% 0.0 mm 146 W/m2
13:30 16.4 °C 12.9 °C 1010.8 hPa North 1.4 km/h 3.2 km/h 80% 0.0 mm 151 W/m2
13:35 16.5 °C 12.8 °C 1010.5 hPa NE 3.2 km/h 6.4 km/h 79% 0.0 mm 309 W/m2
13:40 16.7 °C 13.2 °C 1010.5 hPa NE 3.2 km/h 6.4 km/h 80% 0.0 mm 327 W/m2
13:45 16.8 °C 12.9 °C 1010.5 hPa North 1.4 km/h 3.2 km/h 78% 0.0 mm 223 W/m2
13:50 16.9 °C 13 °C 1010.5 hPa NW 6.4 km/h 9.7 km/h 78% 0.0 mm 130 W/m2
13:55 16.9 °C 13 °C 1010.2 hPa WNW 4.7 km/h 14.5 km/h 78% 0.0 mm 278 W/m2
14:00 17 °C 13.3 °C 1010.2 hPa NNE 3.2 km/h 4.8 km/h 79% 0.0 mm 352 W/m2
14:05 17.2 °C 13.3 °C 1010.2 hPa NNE 1.4 km/h 6.4 km/h 78% 0.0 mm 264 W/m2
14:10 17.3 °C 13.4 °C 1009.8 hPa ENE 3.2 km/h 9.7 km/h 78% 0.0 mm 285 W/m2
14:15 17.5 °C 13.6 °C 1009.5 hPa Calm   6.4 km/h 78% 0.0 mm 294 W/m2
14:20 17.6 °C 13.5 °C 1009.1 hPa North 1.4 km/h 6.4 km/h 77% 0.0 mm 151 W/m2
14:25 17.7 °C 13.4 °C 1009.1 hPa Calm   17.7 km/h 76% 0.0 mm 195 W/m2
14:30 17.8 °C 13.7 °C 1009.1 hPa ENE 7.9 km/h 11.3 km/h 77% 0.0 mm 264 W/m2
14:35 17.9 °C 13.6 °C 1008.8 hPa NNE 6.4 km/h 11.3 km/h 76% 0.0 mm 244 W/m2
14:40 17.9 °C 13.6 °C 1008.8 hPa NNE 6.4 km/h 6.4 km/h 76% 0.0 mm 271 W/m2
14:45 18 °C 13.5 °C 1008.5 hPa ENE 3.2 km/h 9.7 km/h 75% 0.0 mm 308 W/m2
14:50 18.2 °C 13.7 °C 1008.5 hPa NE 3.2 km/h 6.4 km/h 75% 0.0 mm 327 W/m2
14:55 18.3 °C 13.6 °C 1008.5 hPa WNW 1.4 km/h 16.1 km/h 74% 0.0 mm 283 W/m2
15:00 18.4 °C 13.9 °C 1008.5 hPa Calm   11.3 km/h 75% 0.0 mm 410 W/m2
15:05 18.7 °C 14 °C 1008.5 hPa ENE 4.7 km/h 14.5 km/h 74% 0.0 mm 385 W/m2
15:10 18.8 °C 14.1 °C 1008.5 hPa ENE 3.2 km/h 11.3 km/h 74% 0.0 mm 404 W/m2
15:15 18.8 °C 13.9 °C 1008.1 hPa East 3.2 km/h 8 km/h 73% 0.0 mm 176 W/m2
15:20 18.7 °C 13.5 °C 1008.1 hPa East 11.1 km/h 11.3 km/h 72% 0.0 mm 158 W/m2
15:25 18.6 °C 13.5 °C 1008.1 hPa East 13 km/h 12.9 km/h 72% 0.0 mm 185 W/m2
15:30 18.6 °C 13.7 °C 1008.1 hPa ENE 4.7 km/h 6.4 km/h 73% 0.0 mm 223 W/m2
15:35 18.7 °C 13.8 °C 1007.8 hPa ENE 3.2 km/h 8 km/h 73% 0.0 mm 199 W/m2
15:40 18.7 °C 13.5 °C 1007.8 hPa East 4.7 km/h 8 km/h 72% 0.0 mm 221 W/m2
15:45 18.8 °C 13.6 °C 1007.5 hPa ESE 1.4 km/h 6.4 km/h 72% 0.0 mm 297 W/m2
15:50 18.9 °C 13.5 °C 1007.5 hPa NNW 3.2 km/h 12.9 km/h 71% 0.0 mm 309 W/m2
15:55 19.1 °C 13.5 °C 1007.5 hPa ESE 1.4 km/h 4.8 km/h 70% 0.0 mm 257 W/m2
16:00 19.1 °C 13.5 °C 1007.1 hPa East 7.9 km/h 9.7 km/h 70% 0.0 mm 290 W/m2
16:05 19.3 °C 13.7 °C 1007.1 hPa NE 4.7 km/h 6.4 km/h 70% 0.0 mm 367 W/m2
16:10 19.4 °C 13.3 °C 1007.1 hPa Calm   12.9 km/h 68% 0.0 mm 216 W/m2
16:15 19.4 °C 13.3 °C 1007.1 hPa Calm   8 km/h 68% 0.0 mm 169 W/m2
16:20 19.3 °C 13.2 °C 1006.8 hPa East 4.7 km/h 6.4 km/h 68% 0.0 mm 220 W/m2
16:25 19.2 °C 13.4 °C 1006.8 hPa NE 3.2 km/h 14.5 km/h 69% 0.0 mm 190 W/m2
16:30 19.2 °C 13.4 °C 1006.4 hPa NE 1.4 km/h 8 km/h 69% 0.0 mm 185 W/m2
16:35 19.1 °C 13.3 °C 1006.8 hPa Calm   4.8 km/h 69% 0.0 mm 165 W/m2
16:40 19.1 °C 13.3 °C 1006.4 hPa ESE 11.1 km/h 11.3 km/h 69% 0.0 mm 153 W/m2
16:45 19.1 °C 13.5 °C 1006.4 hPa East 3.2 km/h 4.8 km/h 70% 0.0 mm 163 W/m2
16:50 19.1 °C 13.5 °C 1006.4 hPa Calm   4.8 km/h 70% 0.0 mm 160 W/m2
16:55 19.1 °C 13.3 °C 1006.4 hPa NNE 7.9 km/h 9.7 km/h 69% 0.0 mm 139 W/m2
17:00 19.1 °C 13.5 °C 1006.4 hPa ENE 1.4 km/h 3.2 km/h 70% 0.0 mm 113 W/m2
17:05 19 °C 13.2 °C 1006.1 hPa NE 3.2 km/h 4.8 km/h 69% 0.0 mm 100 W/m2
17:10 19 °C 13.2 °C 1006.1 hPa East 3.2 km/h 12.9 km/h 69% 0.0 mm 91 W/m2
17:15 18.9 °C 12.9 °C 1006.1 hPa East 1.4 km/h 8 km/h 68% 0.0 mm 88 W/m2
17:20 18.9 °C 12.9 °C 1006.1 hPa Calm   3.2 km/h 68% 0.0 mm 91 W/m2
17:25 18.8 °C 12.8 °C 1005.8 hPa SE 7.9 km/h 9.7 km/h 68% 0.0 mm 84 W/m2
17:30 18.8 °C 13 °C 1005.8 hPa East 3.2 km/h 9.7 km/h 69% 0.0 mm 77 W/m2
17:35 18.7 °C 12.9 °C 1005.8 hPa ENE 3.2 km/h 9.7 km/h 69% 0.0 mm 69 W/m2
17:40 18.7 °C 12.9 °C 1005.8 hPa Calm   4.8 km/h 69% 0.0 mm 63 W/m2
17:45 18.6 °C 13 °C 1005.8 hPa East 3.2 km/h 9.7 km/h 70% 0.0 mm 60 W/m2
17:50 18.6 °C 13.2 °C 1005.8 hPa Calm   1.6 km/h 71% 0.0 mm 62 W/m2
17:55 18.4 °C 12.8 °C 1005.4 hPa SSE 1.4 km/h 4.8 km/h 70% 0.0 mm 67 W/m2
18:00 18.3 °C 13 °C 1005.4 hPa ENE 6.4 km/h 8 km/h 71% 0.0 mm 65 W/m2
18:05 18.3 °C 12.7 °C 1005.4 hPa East 1.4 km/h 4.8 km/h 70% 0.0 mm 58 W/m2
18:10 18.3 °C 13.4 °C 1005.1 hPa ENE 1.4 km/h 3.2 km/h 73% 0.0 mm 47 W/m2
18:15 18.2 °C 12.9 °C 1005.1 hPa ENE 3.2 km/h 6.4 km/h 71% 0.0 mm 37 W/m2
18:20 18.2 °C 12.9 °C 1005.1 hPa ENE 4.7 km/h 4.8 km/h 71% 0.0 mm 30 W/m2
18:25 18.2 °C 12.9 °C 1005.1 hPa East 1.4 km/h 6.4 km/h 71% 0.0 mm 23 W/m2
18:30 18.2 °C 12.9 °C 1005.1 hPa ENE 1.4 km/h 4.8 km/h 71% 0.0 mm 18 W/m2
18:36 18.2 °C 12.9 °C 1005.1 hPa Calm   4.8 km/h 71% 0.0 mm 16 W/m2
18:41 18.2 °C 12.6 °C 1005.1 hPa NE 4.7 km/h 4.8 km/h 70% 0.0 mm 12 W/m2
18:46 18.2 °C 12.9 °C 1004.7 hPa NE 1.4 km/h 8 km/h 71% 0.0 mm 9 W/m2
18:51 18.1 °C 13 °C 1004.7 hPa SW 1.4 km/h 1.6 km/h 72% 0.0 mm 5 W/m2
18:56 17.9 °C 12.8 °C 1004.7 hPa ENE 11.1 km/h 14.5 km/h 72% 0.0 mm 0 W/m2
19:01 17.9 °C 13.2 °C 1004.7 hPa NE 1.4 km/h 1.6 km/h 74% 0.0 mm 0 W/m2
19:06 17.7 °C 12.8 °C 1004.7 hPa ENE 4.7 km/h 14.5 km/h 73% 0.0 mm 0 W/m2
19:11 17.7 °C 13.4 °C 1004.4 hPa Calm     76% 0.0 mm 0 W/m2
19:16 17.5 °C 13 °C 1004.4 hPa NE 4.7 km/h 12.9 km/h 75% 0.0 mm 0 W/m2
19:21 17.8 °C 12.9 °C 1004.4 hPa Calm   4.8 km/h 73% 0.0 mm 0 W/m2
19:26 17.9 °C 13 °C 1004.4 hPa East 3.2 km/h 12.9 km/h 73% 0.0 mm 0 W/m2
19:31 18.1 °C 13.2 °C 1004.4 hPa ENE 7.9 km/h 11.3 km/h 73% 0.0 mm 0 W/m2
19:36 18.1 °C 13 °C 1004.4 hPa East 7.9 km/h 11.3 km/h 72% 0.0 mm 0 W/m2
19:41 18.2 °C 13.1 °C 1004.4 hPa ENE 1.4 km/h 8 km/h 72% 0.0 mm 0 W/m2
19:46 18.3 °C 13.6 °C 1004.4 hPa ENE 11.3 km/h 11.3 km/h 74% 0.0 mm 0 W/m2
19:51 18.1 °C 13.8 °C 1004.4 hPa Calm   3.2 km/h 76% 0.0 mm 0 W/m2
19:56 17.9 °C 13.8 °C 1004.1 hPa Calm   4.8 km/h 77% 0.0 mm 0 W/m2
20:01 17.7 °C 14.2 °C 1004.4 hPa Calm   6.4 km/h 80% 0.0 mm 0 W/m2
20:06 17.3 °C 14.2 °C 1004.4 hPa South 1.4 km/h 3.2 km/h 82% 0.0 mm 0 W/m2
20:11 17 °C 14.1 °C 1004.1 hPa East 1.4 km/h 4.8 km/h 83% 0.0 mm 0 W/m2
20:16 16.8 °C 14.1 °C 1004.1 hPa Calm   3.2 km/h 84% 0.2 mm 0 W/m2
20:21 16.7 °C 14.2 °C 1004.1 hPa ENE 1.4 km/h 6.4 km/h 85% 0.2 mm 0 W/m2
20:26 16.6 °C 14.1 °C 1004.1 hPa NE 1.4 km/h 6.4 km/h 85% 0.2 mm 0 W/m2
20:31 16.6 °C 14.4 °C 1004.1 hPa NE 6.4 km/h 6.4 km/h 87% 0.2 mm 0 W/m2
20:36 16.5 °C 14.3 °C 1004.1 hPa Calm   3.2 km/h 87% 0.2 mm 0 W/m2
20:41 16.3 °C 14.3 °C 1004.1 hPa Calm     88% 0.2 mm 0 W/m2
20:46 16.2 °C 14.2 °C 1004.1 hPa East 1.4 km/h 8 km/h 88% 0.2 mm 0 W/m2
20:51 16.2 °C 14.4 °C 1004.1 hPa NNE 3.2 km/h 3.2 km/h 89% 0.5 mm 0 W/m2
20:56 16.1 °C 14.3 °C 1003.7 hPa Calm   8 km/h 89% 0.5 mm 0 W/m2
21:01 16.1 °C 14.3 °C 1003.7 hPa Calm   1.6 km/h 89% 0.5 mm 0 W/m2
21:06 16.1 °C 14.5 °C 1003.7 hPa ESE 1.4 km/h 3.2 km/h 90% 0.5 mm 0 W/m2
21:11 16.2 °C 14.4 °C 1003.7 hPa ENE 4.7 km/h 11.3 km/h 89% 0.5 mm 0 W/m2
21:16 16.6 °C 14.4 °C 1003.4 hPa East 1.4 km/h 3.2 km/h 87% 0.2 mm 0 W/m2
21:21 16.7 °C 14.3 °C 1003.4 hPa East 3.2 km/h 8 km/h 86% 0.2 mm 0 W/m2
21:26 16.9 °C 14.4 °C 1003.4 hPa ENE 3.2 km/h 6.4 km/h 85% 0.2 mm 0 W/m2
21:31 17 °C 14.6 °C 1003.4 hPa Calm   3.2 km/h 86% 0.2 mm 0 W/m2
21:36 16.8 °C 14.6 °C 1003.4 hPa SE 1.4 km/h 3.2 km/h 87% 0.5 mm 0 W/m2
21:41 16.6 °C 14.6 °C 1003.0 hPa Calm   3.2 km/h 88% 0.5 mm 0 W/m2
21:46 16.4 °C 14.4 °C 1003.0 hPa NE 1.4 km/h 9.7 km/h 88% 0.5 mm 0 W/m2
21:51 16.6 °C 14.4 °C 1003.0 hPa ENE 1.4 km/h 3.2 km/h 87% 0.2 mm 0 W/m2
21:56 16.7 °C 14.5 °C 1003.0 hPa East 1.4 km/h 9.7 km/h 87% 0.2 mm 0 W/m2
22:01 16.8 °C 14.4 °C 1003.0 hPa ENE 1.4 km/h 3.2 km/h 86% 0.2 mm 0 W/m2
22:06 16.8 °C 14.3 °C 1003.0 hPa East 3.2 km/h 8 km/h 85% 0.2 mm 0 W/m2
22:11 16.9 °C 14.4 °C 1003.0 hPa Calm   1.6 km/h 85% 0.2 mm 0 W/m2
22:16 16.8 °C 14.3 °C 1003.0 hPa NE 3.2 km/h 8 km/h 85% 0.2 mm 0 W/m2
22:21 16.9 °C 14.2 °C 1003.0 hPa NE 1.4 km/h 4.8 km/h 84% 0.2 mm 0 W/m2
22:26 17.2 °C 14.1 °C 1003.0 hPa Calm   8 km/h 82% 0.2 mm 0 W/m2
22:31 17.2 °C 14.1 °C 1002.7 hPa NNE 6.4 km/h 8 km/h 82% 0.2 mm 0 W/m2
22:36 17.3 °C 14 °C 1002.7 hPa ENE 3.2 km/h 4.8 km/h 81% 0.0 mm 0 W/m2
22:41 17.4 °C 13.9 °C 1002.7 hPa ESE 1.4 km/h 11.3 km/h 80% 0.0 mm 0 W/m2
22:46 17.5 °C 13.8 °C 1002.4 hPa Calm   8 km/h 79% 0.0 mm 0 W/m2
22:51 17.6 °C 13.7 °C 1002.4 hPa ENE 3.2 km/h 6.4 km/h 78% 0.0 mm 0 W/m2
22:56 17.8 °C 13.7 °C 1002.4 hPa NNW 1.4 km/h 11.3 km/h 77% 0.0 mm 0 W/m2
23:01 17.8 °C 13.7 °C 1002.4 hPa North 3.2 km/h 6.4 km/h 77% 0.0 mm 0 W/m2
23:06 17.9 °C 13.6 °C 1002.4 hPa NE 7.9 km/h 8 km/h 76% 0.0 mm 0 W/m2
23:11 17.9 °C 13.6 °C 1002.0 hPa NE 4.7 km/h 6.4 km/h 76% 0.0 mm 0 W/m2
23:16 17.9 °C 13.4 °C 1002.0 hPa NNE 3.2 km/h 6.4 km/h 75% 0.0 mm 0 W/m2
23:21 18 °C 13.5 °C 1002.0 hPa Calm   8 km/h 75% 0.0 mm 0 W/m2
23:26 18 °C 13.5 °C 1002.0 hPa North 1.4 km/h 6.4 km/h 75% 0.0 mm 0 W/m2
23:31 18.1 °C 13.6 °C 1002.0 hPa ENE 6.4 km/h 8 km/h 75% 0.0 mm 0 W/m2
23:37 18.2 °C 13.5 °C 1002.0 hPa North 3.2 km/h 11.3 km/h 74% 0.0 mm 0 W/m2
23:42 18.2 °C 13.5 °C 1002.0 hPa ENE 4.7 km/h 6.4 km/h 74% 0.0 mm 0 W/m2
23:47 18.2 °C 13.5 °C 1002.0 hPa ENE 3.2 km/h 6.4 km/h 74% 0.0 mm 0 W/m2
23:52 18.2 °C 13.5 °C 1002.0 hPa ESE 3.2 km/h 4.8 km/h 74% 0.0 mm 0 W/m2
23:57 18.2 °C 13.3 °C 1002.0 hPa NNW 3.2 km/h 8 km/h 73% 0.0 mm 0 W/m2
Juneau County Weather
Compliments of Weather Underground - 4 mb